Time;durP1;ratioP1;P1;durP2;ratioP2;P2;SDS_P1;SDS_P2;PMS_P1;PMS_P2;Temp;Humidity;BMP_temperature;BMP_pressure;BME280_temperature;BME280_humidity;BME280_pressure;Samples;Min_cycle;Max_cycle;Signal;HPM_P1;HPM_P2
2021/08/19 00:01:39;;;;;;;5.20;2.73;;;;;;;16.39;100.00;94697.53;10322775;28;20490;-72
2021/08/19 00:06:40;;;;;;;4.37;2.40;;;;;;;16.17;100.00;94691.03;10322130;28;20062;-72
2021/08/19 00:11:40;;;;;;;8.57;2.38;;;;;;;16.02;100.00;94694.13;10323474;28;20296;-72
2021/08/19 00:16:41;;;;;;;4.07;2.40;;;;;;;15.99;100.00;94697.44;10323593;28;20056;-73
2021/08/19 00:21:41;;;;;;;6.57;3.08;;;;;;;16.18;100.00;94689.09;10323628;28;20113;-72
2021/08/19 00:26:43;;;;;;;8.07;2.28;;;;;;;16.14;100.00;94690.84;10323487;28;20050;-72
2021/08/19 00:31:43;;;;;;;10.07;2.40;;;;;;;16.18;100.00;94698.03;10322115;28;20018;-72
2021/08/19 00:36:44;;;;;;;7.15;2.08;;;;;;;16.07;100.00;94699.41;10323178;28;20045;-72
2021/08/19 00:41:44;;;;;;;9.63;3.13;;;;;;;16.06;100.00;94701.31;10322930;28;20447;-72
2021/08/19 00:46:44;;;;;;;4.30;2.07;;;;;;;16.07;100.00;94702.09;10322348;28;20371;-72
2021/08/19 00:51:49;;;;;;;4.10;2.07;;;;;;;16.06;100.00;94704.03;10322775;28;20292;-72
2021/08/19 00:56:59;;;;;;;5.35;2.35;;;;;;;16.05;100.00;94698.91;10323099;28;20372;-71
2021/08/19 01:02:00;;;;;;;7.78;2.20;;;;;;;16.10;100.00;94698.78;10331805;28;20121;-71
2021/08/19 01:07:02;;;;;;;2.78;1.95;;;;;;;16.22;100.00;94704.44;10322417;28;20057;-72
2021/08/19 01:12:06;;;;;;;2.83;2.30;;;;;;;16.21;100.00;94699.34;10327263;28;20545;-72
2021/08/19 01:17:07;;;;;;;3.45;2.10;;;;;;;16.12;100.00;94696.56;10330431;28;20425;-71
2021/08/19 01:22:08;;;;;;;4.60;1.80;;;;;;;15.93;100.00;94698.66;10330378;28;20485;-71
2021/08/19 01:27:16;;;;;;;5.20;2.40;;;;;;;15.61;100.00;94693.13;10329571;28;20031;-72
2021/08/19 01:32:17;;;;;;;5.77;2.10;;;;;;;15.48;100.00;94694.78;10329458;28;20706;-71
2021/08/19 01:37:17;;;;;;;4.30;2.35;;;;;;;15.43;100.00;94711.13;10334529;28;20058;-71
2021/08/19 01:42:18;;;;;;;4.00;2.37;;;;;;;15.15;100.00;94700.38;10328846;28;20705;-72
2021/08/19 01:47:21;;;;;;;5.60;2.73;;;;;;;15.09;100.00;94698.84;10329010;28;20026;-71
2021/08/19 01:52:21;;;;;;;3.72;1.85;;;;;;;15.07;100.00;94701.06;10329450;28;20486;-71
2021/08/19 01:57:23;;;;;;;10.67;2.57;;;;;;;15.01;100.00;94700.38;10329136;28;20026;-71
2021/08/19 02:02:23;;;;;;;4.13;2.50;;;;;;;15.01;100.00;94699.56;10326331;28;20344;-71
2021/08/19 02:07:24;;;;;;;4.93;2.47;;;;;;;15.02;100.00;94691.13;10327293;28;20054;-71
2021/08/19 02:12:24;;;;;;;5.40;2.07;;;;;;;15.18;100.00;94691.63;10327700;28;20663;-71
2021/08/19 02:17:24;;;;;;;4.07;2.63;;;;;;;15.06;100.00;94694.06;10327930;28;20044;-72
2021/08/19 02:22:25;;;;;;;3.93;2.83;;;;;;;15.12;100.00;94698.25;10327112;28;20289;-72
2021/08/19 02:27:26;;;;;;;16.03;2.73;;;;;;;15.21;100.00;94692.94;10327436;28;20034;-72
2021/08/19 02:32:27;;;;;;;3.90;2.20;;;;;;;15.14;100.00;94696.06;10327405;28;20034;-71
2021/08/19 02:37:28;;;;;;;3.03;2.13;;;;;;;15.14;100.00;94703.34;10327513;28;20520;-72
2021/08/19 02:42:28;;;;;;;8.55;2.47;;;;;;;15.20;100.00;94705.66;10326833;28;20351;-72
2021/08/19 02:47:28;;;;;;;4.07;2.17;;;;;;;15.10;100.00;94703.16;10326887;28;20453;-71
2021/08/19 02:52:29;;;;;;;5.17;2.53;;;;;;;15.09;100.00;94703.47;10326982;28;20285;-71
2021/08/19 02:57:29;;;;;;;3.03;2.30;;;;;;;15.07;100.00;94711.91;10326349;28;20053;-71
2021/08/19 03:02:29;;;;;;;4.43;2.60;;;;;;;14.90;100.00;94709.78;10326261;28;20288;-72
2021/08/19 03:07:30;;;;;;;3.97;2.60;;;;;;;14.81;100.00;94717.00;10326012;28;20329;-72
2021/08/19 03:12:31;;;;;;;4.88;2.55;;;;;;;14.92;100.00;94717.63;10326607;28;20451;-71
2021/08/19 03:17:33;;;;;;;6.20;2.30;;;;;;;14.83;100.00;94737.25;10325956;28;20077;-72
2021/08/19 03:22:34;;;;;;;3.40;2.20;;;;;;;14.93;100.00;94732.72;10325803;28;20030;-71
2021/08/19 03:27:34;;;;;;;4.45;2.35;;;;;;;14.68;100.00;94735.63;10325526;28;20100;-71
2021/08/19 03:32:37;;;;;;;10.98;3.25;;;;;;;14.79;100.00;94738.97;10324625;28;20040;-72
2021/08/19 03:37:40;;;;;;;5.03;2.40;;;;;;;14.82;100.00;94742.97;10322754;28;20073;-72
2021/08/19 03:42:40;;;;;;;4.68;2.33;;;;;;;14.84;100.00;94744.25;10324362;28;20023;-72
2021/08/19 03:47:41;;;;;;;8.68;2.78;;;;;;;14.72;100.00;94743.97;10324613;28;20034;-71
2021/08/19 03:52:42;;;;;;;4.60;2.42;;;;;;;14.80;100.00;94751.38;10324534;28;20437;-71
2021/08/19 03:57:42;;;;;;;3.15;1.90;;;;;;;14.78;100.00;94748.16;10326683;28;20030;-71
2021/08/19 04:02:44;;;;;;;7.60;3.50;;;;;;;14.89;100.00;94750.66;10324088;28;20030;-71
2021/08/19 04:07:44;;;;;;;4.63;2.67;;;;;;;14.82;100.00;94745.69;10323962;28;20046;-72
2021/08/19 04:12:45;;;;;;;5.97;3.03;;;;;;;14.90;100.00;94744.16;10323599;28;20049;-72
2021/08/19 04:17:45;;;;;;;8.30;3.20;;;;;;;14.96;100.00;94749.19;10323361;28;20030;-72
2021/08/19 04:22:46;;;;;;;7.88;2.40;;;;;;;15.05;100.00;94751.97;10323237;28;20033;-72
2021/08/19 04:27:46;;;;;;;4.90;2.63;;;;;;;15.15;100.00;94759.94;10322970;28;20092;-71
2021/08/19 04:32:47;;;;;;;7.63;2.40;;;;;;;15.12;100.00;94765.91;10322974;28;20877;-72
2021/08/19 04:37:48;;;;;;;6.00;2.97;;;;;;;15.33;100.00;94760.09;10320983;28;20125;-72
2021/08/19 04:42:49;;;;;;;3.28;2.40;;;;;;;15.46;100.00;94763.88;10322738;28;20027;-72
2021/08/19 04:47:49;;;;;;;8.77;3.50;;;;;;;15.59;100.00;94765.00;10320889;28;20084;-71
2021/08/19 04:52:49;;;;;;;10.77;3.00;;;;;;;15.73;100.00;94754.91;10321711;28;20265;-72
2021/08/19 04:57:50;;;;;;;7.23;4.53;;;;;;;15.89;100.00;94753.50;10313648;28;20693;-72
2021/08/19 05:02:50;;;;;;;4.30;2.03;;;;;;;16.18;100.00;94765.81;10281516;28;20491;-72
2021/08/19 05:07:50;;;;;;;5.67;2.77;;;;;;;16.62;97.66;94765.31;10281664;28;20038;-72
2021/08/19 05:12:51;;;;;;;6.90;2.83;;;;;;;17.16;91.46;94768.00;10282044;28;20658;-72
2021/08/19 05:17:51;;;;;;;11.57;3.13;;;;;;;17.74;88.09;94768.78;10281682;28;20035;-72
2021/08/19 05:22:51;;;;;;;12.45;2.88;;;;;;;18.25;83.59;94763.69;10279522;28;20031;-72
2021/08/19 05:27:52;;;;;;;10.70;3.10;;;;;;;18.88;79.27;94766.81;10281435;28;20027;-72
2021/08/19 05:32:52;;;;;;;11.00;3.15;;;;;;;19.54;73.23;94771.03;10281125;28;20134;-71
2021/08/19 05:37:53;;;;;;;8.80;3.33;;;;;;;20.34;66.96;94774.03;10280981;28;20086;-72
2021/08/19 05:42:53;;;;;;;12.03;2.60;;;;;;;21.05;61.42;94759.34;10279329;28;20034;-72
2021/08/19 05:47:53;;;;;;;5.73;2.63;;;;;;;21.31;57.36;94763.72;10279753;28;20039;-72
2021/08/19 05:52:54;;;;;;;6.07;2.60;;;;;;;22.14;53.66;94761.56;10277916;28;20122;-72
2021/08/19 05:57:54;;;;;;;6.33;2.90;;;;;;;21.36;54.50;94763.47;10281658;28;20039;-72
2021/08/19 06:02:54;;;;;;;17.00;2.70;;;;;;;22.67;51.31;94756.03;10286737;28;20048;-72
2021/08/19 06:07:55;;;;;;;3.42;2.05;;;;;;;21.79;50.32;94753.91;10287274;28;20153;-72
2021/08/19 06:12:55;;;;;;;2.73;1.73;;;;;;;21.44;54.62;94751.63;10288729;28;20045;-72
2021/08/19 06:17:56;;;;;;;3.60;1.97;;;;;;;21.90;51.09;94748.75;10289154;28;20043;-73
2021/08/19 06:22:56;;;;;;;6.32;2.45;;;;;;;23.40;47.97;94755.97;10288901;28;21022;-73
2021/08/19 06:27:56;;;;;;;4.95;2.85;;;;;;;24.97;43.20;94747.91;10288546;28;20894;-72
2021/08/19 06:32:57;;;;;;;6.10;2.23;;;;;;;25.85;40.75;94741.50;10287840;28;20033;-72
2021/08/19 06:37:57;;;;;;;3.37;1.93;;;;;;;24.68;40.29;94747.38;10288242;28;20117;-72
2021/08/19 06:42:58;;;;;;;5.75;2.10;;;;;;;25.32;40.22;94736.75;10287690;28;20034;-72
2021/08/19 06:47:58;;;;;;;6.87;2.07;;;;;;;24.70;41.74;94751.34;10287043;28;20031;-72
2021/08/19 06:52:58;;;;;;;8.50;2.47;;;;;;;26.27;38.69;94728.69;10287846;28;20022;-72
2021/08/19 06:57:59;;;;;;;3.13;1.83;;;;;;;25.84;38.81;94723.38;10287154;28;20029;-72
2021/08/19 07:02:59;;;;;;;8.73;2.23;;;;;;;27.36;37.57;94734.22;10286983;28;20023;-72
2021/08/19 07:08:00;;;;;;;6.57;2.58;;;;;;;28.17;34.42;94728.09;10286444;28;20050;-72
2021/08/19 07:13:00;;;;;;;4.75;2.20;;;;;;;29.35;32.69;94724.91;10286915;28;20031;-72
2021/08/19 07:18:01;;;;;;;4.30;2.23;;;;;;;29.76;31.32;94724.47;10287112;28;20030;-72
2021/08/19 07:23:01;;;;;;;5.30;1.65;;;;;;;29.58;31.85;94720.94;10285991;28;20298;-72
2021/08/19 07:28:02;;;;;;;2.63;1.90;;;;;;;27.72;33.35;94726.22;10286605;28;20038;-72
2021/08/19 07:33:02;;;;;;;2.40;1.50;;;;;;;27.86;33.67;94721.97;10286524;28;20034;-72
2021/08/19 07:38:03;;;;;;;4.03;1.80;;;;;;;30.56;29.46;94724.31;10286082;28;20026;-72
2021/08/19 07:43:03;;;;;;;11.70;2.25;;;;;;;32.08;28.03;94719.28;10286008;28;20031;-72
2021/08/19 07:48:12;;;;;;;4.30;1.40;;;;;;;33.14;26.62;94714.00;10284613;28;20064;-72
2021/08/19 07:53:13;;;;;;;2.40;1.27;;;;;;;33.53;25.88;94719.00;10285552;28;20510;-72
2021/08/19 07:58:13;;;;;;;2.85;1.55;;;;;;;34.79;24.94;94703.94;10284685;28;20038;-72
2021/08/19 08:03:14;;;;;;;5.40;1.60;;;;;;;34.51;25.17;94703.31;10285202;28;20509;-72
2021/08/19 08:08:14;;;;;;;3.27;1.80;;;;;;;34.84;24.51;94692.28;10284356;28;20050;-72
2021/08/19 08:13:15;;;;;;;6.87;1.70;;;;;;;35.46;24.49;94695.28;10284239;28;20046;-72
2021/08/19 08:18:17;;;;;;;2.25;1.48;;;;;;;35.82;23.65;94688.81;10284504;28;20042;-72
2021/08/19 08:23:21;;;;;;;4.13;2.10;;;;;;;35.33;23.87;94684.00;10283741;28;20034;-72
2021/08/19 08:28:26;;;;;;;8.13;1.60;;;;;;;34.61;24.75;94682.78;10282321;28;20030;-72
2021/08/19 08:33:26;;;;;;;5.30;1.65;;;;;;;35.19;23.78;94679.50;10284889;28;20061;-72
2021/08/19 08:38:30;;;;;;;4.00;1.40;;;;;;;36.34;22.67;94672.25;10283357;28;20042;-72
2021/08/19 08:43:31;;;;;;;3.15;1.25;;;;;;;37.61;21.19;94670.78;10282692;28;20026;-72
2021/08/19 08:48:32;;;;;;;4.97;1.55;;;;;;;37.30;21.00;94673.41;10283604;28;20490;-72
2021/08/19 08:53:32;;;;;;;2.35;1.40;;;;;;;38.02;19.91;94665.41;10283460;28;20035;-72
2021/08/19 08:58:33;;;;;;;3.85;1.40;;;;;;;37.78;20.55;94651.81;10283037;28;20030;-72
2021/08/19 09:03:34;;;;;;;6.05;1.65;;;;;;;37.57;21.04;94644.88;10283274;28;20041;-72
2021/08/19 09:08:39;;;;;;;5.38;1.80;;;;;;;37.69;20.32;94642.50;10282365;28;20054;-72
2021/08/19 09:13:39;;;;;;;2.87;1.50;;;;;;;39.02;19.52;94634.06;10282958;28;20022;-72
2021/08/19 09:18:40;;;;;;;2.00;0.95;;;;;;;38.93;18.10;94634.81;10283070;28;20039;-72
2021/08/19 09:23:40;;;;;;;4.40;1.30;;;;;;;38.27;19.14;94633.66;10282390;28;20042;-72
2021/08/19 09:28:41;;;;;;;3.17;1.40;;;;;;;39.01;19.17;94630.50;10282921;28;20439;-72
2021/08/19 09:33:45;;;;;;;4.30;1.80;;;;;;;38.49;19.07;94624.44;10288159;28;20035;-72
2021/08/19 09:38:45;;;;;;;7.80;1.50;;;;;;;37.09;19.87;94613.19;10290269;28;20042;-72
2021/08/19 09:43:46;;;;;;;2.23;0.93;;;;;;;37.18;19.73;94606.94;10289392;28;20038;-72
2021/08/19 09:48:47;;;;;;;5.78;1.35;;;;;;;36.26;20.60;94596.88;10290325;28;20464;-72
2021/08/19 09:53:57;;;;;;;2.70;1.38;;;;;;;36.84;20.44;94603.59;10289970;28;20023;-72
2021/08/19 09:59:18;;;;;;;3.50;1.08;;;;;;;37.27;19.60;94591.03;10289342;28;20039;-72
2021/08/19 10:04:19;;;;;;;2.08;1.27;;;;;;;39.63;18.15;94581.00;10289630;28;20414;-72
2021/08/19 10:09:20;;;;;;;2.03;1.20;;;;;;;39.45;17.86;94571.28;10289681;28;20406;-72
2021/08/19 10:14:31;;;;;;;5.90;1.40;;;;;;;40.32;17.44;94559.06;10288792;28;20030;-72
2021/08/19 10:19:35;;;;;;;4.57;1.50;;;;;;;41.85;15.99;94562.53;10289493;28;20034;-73
2021/08/19 10:24:38;;;;;;;3.25;1.00;;;;;;;41.96;15.33;94556.34;10287479;28;20038;-72
2021/08/19 10:29:54;;;;;;;3.75;1.20;;;;;;;42.99;15.00;94549.09;10288764;28;20034;-72
2021/08/19 10:35:08;;;;;;;1.85;1.13;;;;;;;42.26;14.96;94554.34;10287296;28;20018;-72
2021/08/19 10:40:34;;;;;;;2.17;1.20;;;;;;;42.89;13.18;94544.84;10288106;28;20040;-72
2021/08/19 10:45:41;;;;;;;2.28;0.90;;;;;;;42.05;13.37;94541.34;10287024;28;20062;-72
2021/08/19 10:50:43;;;;;;;3.50;1.15;;;;;;;43.11;14.47;94533.09;10287735;28;20027;-72
2021/08/19 10:55:45;;;;;;;4.68;1.17;;;;;;;42.39;14.86;94533.50;10286768;28;20027;-72
2021/08/19 11:00:46;;;;;;;3.90;1.35;;;;;;;37.30;17.27;94533.25;10287548;28;20118;-72
2021/08/19 11:05:46;;;;;;;3.58;1.45;;;;;;;38.87;17.10;94525.06;10287350;28;20051;-72
2021/08/19 11:10:53;;;;;;;2.30;1.27;;;;;;;41.40;15.24;94527.78;10287021;28;20041;-72
2021/08/19 11:15:53;;;;;;;3.58;1.10;;;;;;;41.46;14.90;94525.84;10287064;28;20041;-72
2021/08/19 11:20:55;;;;;;;2.80;1.27;;;;;;;38.35;17.21;94509.88;10286516;28;20478;-72
2021/08/19 11:26:01;;;;;;;3.72;1.63;;;;;;;35.18;20.07;94517.91;10286380;28;20034;-72
2021/08/19 11:31:09;;;;;;;;;;;;;;;31.41;22.38;94525.06;10286934;28;20042;-72
2021/08/19 11:36:10;;;;;;;;;;;;;;;29.64;24.83;94522.72;10286595;28;19910;-72
2021/08/19 11:41:17;;;;;;;4.72;1.70;;;;;;;29.76;23.77;94519.47;10285773;28;20373;-72
2021/08/19 11:46:20;;;;;;;4.03;1.30;;;;;;;29.83;24.13;94510.34;10285868;28;20077;-72
2021/08/19 11:51:27;;;;;;;3.75;1.50;;;;;;;29.28;25.12;94511.75;10284741;28;20018;-72
2021/08/19 11:56:35;;;;;;;4.00;1.27;;;;;;;28.44;26.27;94510.22;10283836;28;20026;-72
2021/08/19 12:01:39;;;;;;;2.83;1.55;;;;;;;28.25;27.42;94503.09;10282906;28;20070;-72
2021/08/19 12:06:40;;;;;;;3.00;1.60;;;;;;;28.37;26.65;94499.94;10282401;28;20153;-72
2021/08/19 12:11:43;;;;;;;2.53;1.73;;;;;;;28.63;26.04;94493.28;10282453;28;20027;-72
2021/08/19 12:16:48;;;;;;;4.63;2.00;;;;;;;28.50;27.00;94491.28;10280758;28;20027;-72
2021/08/19 12:21:51;;;;;;;3.80;1.70;;;;;;;28.36;26.85;94479.00;10278478;28;20033;-72
2021/08/19 12:27:14;;;;;;;2.40;1.77;;;;;;;28.55;27.14;94477.03;10280169;28;20042;-72
2021/08/19 12:32:35;;;;;;;4.25;2.42;;;;;;;28.71;27.73;94477.44;10280748;28;20037;-72
2021/08/19 12:37:38;;;;;;;3.15;1.95;;;;;;;28.12;27.71;94484.13;10280991;28;20026;-72
2021/08/19 12:42:41;;;;;;;4.70;1.80;;;;;;;27.97;28.24;94469.47;10281439;28;20033;-72
2021/08/19 12:47:44;;;;;;;8.20;3.50;;;;;;;28.05;27.85;94461.22;10279182;28;20038;-72
2021/08/19 12:52:46;;;;;;;3.17;1.85;;;;;;;28.05;28.23;94461.22;10282180;28;20442;-72
2021/08/19 12:57:47;;;;;;;6.50;2.67;;;;;;;28.34;27.58;94456.53;10279708;28;20106;-72
2021/08/19 13:02:48;;;;;;;5.13;2.03;;;;;;;28.39;28.86;94447.81;10280851;28;20094;-72
2021/08/19 13:07:50;;;;;;;4.50;2.22;;;;;;;28.07;29.40;94458.84;10280105;28;20142;-72
2021/08/19 13:12:51;;;;;;;7.40;1.98;;;;;;;27.83;28.37;94447.34;10279953;28;20031;-71
2021/08/19 13:17:52;;;;;;;6.50;2.20;;;;;;;27.83;28.51;94449.34;10279394;28;20035;-71
2021/08/19 13:22:52;;;;;;;4.10;2.65;;;;;;;27.72;29.41;94452.84;10279427;28;20066;-71
2021/08/19 13:27:52;;;;;;;6.43;3.72;;;;;;;27.80;29.75;94442.63;10278971;28;20031;-72
2021/08/19 13:32:54;;;;;;;7.40;2.90;;;;;;;27.60;29.89;94436.63;10279050;28;20405;-72
2021/08/19 13:37:54;;;;;;;7.47;2.45;;;;;;;27.47;29.92;94432.66;10263572;28;20551;-71
2021/08/19 13:42:55;;;;;;;10.43;2.50;;;;;;;27.44;30.07;94442.50;10280279;28;20026;-71
2021/08/19 13:47:56;;;;;;;9.73;2.80;;;;;;;27.52;29.54;94440.56;10279737;28;20037;-71
2021/08/19 13:52:56;;;;;;;15.02;4.57;;;;;;;27.34;29.86;94435.75;10280459;28;20085;-72
2021/08/19 13:57:58;;;;;;;4.95;2.50;;;;;;;27.37;29.07;94432.25;10280107;28;20413;-72
2021/08/19 14:02:58;;;;;;;4.25;1.95;;;;;;;27.35;28.93;94437.38;10280647;28;20074;-72
2021/08/19 14:07:59;;;;;;;6.50;1.90;;;;;;;27.21;29.04;94438.06;10282321;28;20582;-72
2021/08/19 14:12:59;;;;;;;3.83;2.40;;;;;;;27.30;28.99;94429.44;10281922;28;20146;-72
2021/08/19 14:18:01;;;;;;;6.33;2.47;;;;;;;27.07;29.94;94433.28;10282737;28;20425;-72
2021/08/19 14:23:01;;;;;;;3.95;2.25;;;;;;;26.97;28.62;94431.25;10288623;28;20352;-72
2021/08/19 14:28:05;;;;;;;4.77;2.17;;;;;;;27.02;28.48;94432.88;10288155;28;20022;-72
2021/08/19 14:33:06;;;;;;;5.97;2.55;;;;;;;27.02;29.68;94424.59;10287967;28;20486;-70
2021/08/19 14:38:07;;;;;;;4.22;2.42;;;;;;;26.76;29.19;94421.69;10288678;28;20031;-71
2021/08/19 14:43:07;;;;;;;4.07;1.88;;;;;;;26.59;29.97;94425.88;10288467;28;20031;-71
2021/08/19 14:48:08;;;;;;;2.80;1.97;;;;;;;26.69;29.79;94418.06;10287615;28;20109;-71
2021/08/19 14:53:09;;;;;;;5.53;1.85;;;;;;;26.63;29.73;94420.41;10288002;28;20086;-71
2021/08/19 14:58:10;;;;;;;4.40;2.03;;;;;;;26.61;29.24;94422.72;10287536;28;20094;-71
2021/08/19 15:03:10;;;;;;;4.17;2.40;;;;;;;26.55;29.31;94424.28;10287221;28;20031;-71
2021/08/19 15:08:10;;;;;;;3.57;1.80;;;;;;;26.44;29.51;94427.75;10286698;28;20713;-71
2021/08/19 15:13:11;;;;;;;6.97;2.53;;;;;;;26.46;29.82;94427.38;10287221;28;20113;-71
2021/08/19 15:18:11;;;;;;;6.67;2.30;;;;;;;26.38;29.22;94428.50;10286257;28;20035;-71
2021/08/19 15:23:11;;;;;;;3.13;2.00;;;;;;;26.23;28.90;94433.91;10286625;28;20033;-71
2021/08/19 15:28:12;;;;;;;6.63;2.83;;;;;;;26.12;29.72;94430.25;10285550;28;20022;-71
2021/08/19 15:33:12;;;;;;;11.10;2.37;;;;;;;26.04;29.91;94428.63;10286031;28;20655;-72
2021/08/19 15:38:13;;;;;;;4.90;1.73;;;;;;;25.95;29.78;94420.63;10286335;28;20033;-71
2021/08/19 15:43:14;;;;;;;2.88;1.85;;;;;;;25.97;29.71;94423.81;10285929;28;20811;-71
2021/08/19 15:48:14;;;;;;;5.53;2.58;;;;;;;25.97;29.94;94423.00;10285513;28;20037;-72
2021/08/19 15:53:15;;;;;;;3.33;1.57;;;;;;;25.92;30.17;94426.91;10285595;28;20533;-71
2021/08/19 15:58:16;;;;;;;3.20;1.95;;;;;;;25.92;30.99;94426.91;10285369;28;20049;-72
2021/08/19 16:03:17;;;;;;;5.63;2.42;;;;;;;25.87;31.60;94424.50;10285026;28;20409;-71
2021/08/19 16:08:17;;;;;;;5.00;2.28;;;;;;;25.80;31.55;94422.50;10284629;28;20077;-71
2021/08/19 16:13:18;;;;;;;6.18;2.22;;;;;;;25.15;33.73;94427.25;10284970;28;20038;-71
2021/08/19 16:18:18;;;;;;;6.53;2.40;;;;;;;24.47;37.52;94426.31;10285261;28;20031;-71
2021/08/19 16:23:19;;;;;;;5.10;2.40;;;;;;;24.23;38.56;94434.59;10284390;28;20328;-71
2021/08/19 16:28:19;;;;;;;2.60;1.70;;;;;;;24.31;37.60;94456.66;10283584;28;20486;-71
2021/08/19 16:33:19;;;;;;;5.10;2.17;;;;;;;24.38;36.85;94451.31;10284206;28;20110;-72
2021/08/19 16:38:20;;;;;;;7.97;2.10;;;;;;;24.42;36.24;94460.41;10284313;28;20100;-71
2021/08/19 16:43:21;;;;;;;3.93;2.03;;;;;;;24.49;36.00;94452.25;10282766;28;20313;-71
2021/08/19 16:48:22;;;;;;;2.75;1.50;;;;;;;24.52;36.17;94469.97;10284039;28;20050;-71
2021/08/19 16:53:22;;;;;;;4.32;2.08;;;;;;;24.46;36.30;94485.16;10283578;28;20057;-71
2021/08/19 16:58:23;;;;;;;3.73;2.20;;;;;;;24.40;36.03;94488.22;10281332;28;20027;-71
2021/08/19 17:03:23;;;;;;;6.57;2.43;;;;;;;24.30;36.09;94494.34;10281019;28;20457;-71
2021/08/19 17:08:24;;;;;;;7.17;2.03;;;;;;;24.27;35.92;94503.31;10281273;28;20759;-71
2021/08/19 17:13:25;;;;;;;4.28;1.67;;;;;;;24.16;35.83;94502.34;10281908;28;20550;-71
2021/08/19 17:18:25;;;;;;;3.40;1.60;;;;;;;24.09;36.13;94511.25;10281719;28;20038;-71
2021/08/19 17:23:26;;;;;;;4.60;2.17;;;;;;;23.96;36.15;94520.78;10281133;28;20302;-71
2021/08/19 17:28:26;;;;;;;6.03;1.98;;;;;;;23.85;35.75;94524.13;10281225;28;20366;-71
2021/08/19 17:33:26;;;;;;;6.93;2.30;;;;;;;23.76;36.66;94529.03;10281524;28;20030;-71
2021/08/19 17:38:27;;;;;;;5.53;1.77;;;;;;;23.60;36.15;94525.59;10281572;28;20279;-71
2021/08/19 17:43:28;;;;;;;3.73;1.70;;;;;;;23.49;37.00;94528.13;10281328;28;20333;-71
2021/08/19 17:48:29;;;;;;;4.32;1.52;;;;;;;23.37;37.13;94540.81;10281557;28;20022;-71
2021/08/19 17:53:29;;;;;;;2.88;1.75;;;;;;;23.29;37.04;94546.50;10285247;28;20030;-71
2021/08/19 17:58:30;;;;;;;4.97;2.03;;;;;;;23.05;37.81;94551.03;10288564;28;20038;-71
2021/08/19 18:03:31;;;;;;;5.00;2.13;;;;;;;23.02;38.47;94551.75;10288778;28;20034;-71
2021/08/19 18:08:31;;;;;;;6.10;2.97;;;;;;;22.93;38.15;94557.44;10288229;28;20470;-71
2021/08/19 18:13:32;;;;;;;3.80;2.00;;;;;;;22.77;38.67;94557.47;10288398;28;20093;-72
2021/08/19 18:18:35;;;;;;;3.33;1.77;;;;;;;22.72;38.51;94578.84;10286896;28;20278;-72
2021/08/19 18:23:35;;;;;;;5.03;2.33;;;;;;;22.72;39.69;94578.84;10287260;28;20031;-72
2021/08/19 18:28:35;;;;;;;4.95;2.80;;;;;;;22.34;41.67;94586.53;10286239;28;20031;-72
2021/08/19 18:33:37;;;;;;;9.30;2.63;;;;;;;22.17;43.22;94588.47;10286258;28;20030;-72
2021/08/19 18:38:37;;;;;;;10.30;4.28;;;;;;;22.02;44.69;94590.00;10287934;28;20062;-71
2021/08/19 18:43:37;;;;;;;5.83;3.30;;;;;;;21.84;46.34;94599.69;10289741;28;20049;-72
2021/08/19 18:48:38;;;;;;;7.03;2.97;;;;;;;21.48;48.35;94610.34;10289651;28;20177;-71
2021/08/19 18:53:38;;;;;;;5.70;3.22;;;;;;;21.31;49.88;94613.38;10290092;28;20049;-72
2021/08/19 18:58:39;;;;;;;5.20;2.63;;;;;;;21.08;50.87;94619.31;10289282;28;20037;-72
2021/08/19 19:03:39;;;;;;;4.95;2.78;;;;;;;20.90;51.03;94623.41;10288296;28;20820;-72
2021/08/19 19:08:40;;;;;;;7.17;2.63;;;;;;;20.87;52.30;94633.09;10288637;28;20050;-72
2021/08/19 19:13:40;;;;;;;4.77;3.20;;;;;;;20.83;53.64;94635.72;10289825;28;20037;-72
2021/08/19 19:18:41;;;;;;;9.73;3.15;;;;;;;20.77;54.67;94645.25;10288333;28;20070;-72
2021/08/19 19:23:41;;;;;;;6.90;2.77;;;;;;;20.68;54.07;94643.78;10289291;28;20030;-72
2021/08/19 19:28:42;;;;;;;5.37;2.97;;;;;;;20.43;52.91;94654.66;10288996;28;20354;-72
2021/08/19 19:33:42;;;;;;;9.25;5.22;;;;;;;20.36;53.32;94643.47;10288479;28;20034;-72
2021/08/19 19:38:42;;;;;;;5.53;2.60;;;;;;;20.29;53.66;94638.59;10286125;28;20097;-72
2021/08/19 19:43:43;;;;;;;8.00;2.70;;;;;;;20.23;54.96;94651.63;10284863;28;20038;-72
2021/08/19 19:48:43;;;;;;;4.43;2.43;;;;;;;20.25;56.02;94652.09;10284786;28;20070;-72
2021/08/19 19:53:43;;;;;;;3.37;2.17;;;;;;;20.05;55.64;94648.28;10284309;28;20333;-72
2021/08/19 19:58:44;;;;;;;3.22;2.08;;;;;;;19.85;56.04;94660.03;10284124;28;20341;-72
2021/08/19 20:03:44;;;;;;;5.00;2.33;;;;;;;19.86;56.50;94656.16;10284244;28;20035;-72
2021/08/19 20:08:45;;;;;;;4.60;2.13;;;;;;;19.76;56.55;94655.41;10283637;28;20050;-72
2021/08/19 20:13:45;;;;;;;4.30;2.65;;;;;;;19.76;55.70;94660.84;10283607;28;20285;-72
2021/08/19 20:18:45;;;;;;;3.57;2.13;;;;;;;19.74;54.63;94657.66;10282887;28;20114;-72
2021/08/19 20:23:46;;;;;;;4.17;2.27;;;;;;;19.78;52.79;94657.78;10286561;28;20294;-74
2021/08/19 20:28:46;;;;;;;12.43;2.22;;;;;;;19.78;52.06;94658.56;10287142;28;20101;-73
2021/08/19 20:33:46;;;;;;;2.67;1.90;;;;;;;19.71;52.67;94661.03;10286857;28;20426;-73
2021/08/19 20:38:47;;;;;;;3.47;2.03;;;;;;;19.69;53.22;94668.78;10286845;28;20494;-73
2021/08/19 20:43:47;;;;;;;7.30;2.30;;;;;;;19.47;55.33;94672.63;10284902;28;20045;-72
2021/08/19 20:48:48;;;;;;;5.43;1.80;;;;;;;19.41;54.77;94672.03;10284883;28;20367;-72
2021/08/19 20:53:49;;;;;;;7.53;2.28;;;;;;;19.42;54.03;94667.34;10286219;28;20282;-73
2021/08/19 20:58:49;;;;;;;4.45;2.13;;;;;;;19.42;53.64;94670.09;10286346;28;20038;-73
2021/08/19 21:03:49;;;;;;;3.43;2.30;;;;;;;19.35;53.58;94667.88;10284971;28;20037;-73
2021/08/19 21:08:50;;;;;;;2.87;1.80;;;;;;;19.24;54.03;94667.47;10285676;28;20059;-73
2021/08/19 21:13:50;;;;;;;5.17;2.33;;;;;;;19.13;55.42;94668.97;10285205;28;20281;-72
2021/08/19 21:18:50;;;;;;;7.07;2.33;;;;;;;19.10;56.55;94675.91;10285321;28;20109;-72
2021/08/19 21:23:51;;;;;;;4.90;1.87;;;;;;;19.05;55.96;94673.34;10285577;28;20125;-72
2021/08/19 21:28:51;;;;;;;7.23;2.13;;;;;;;18.98;55.37;94685.88;10290249;28;20046;-72
2021/08/19 21:33:51;;;;;;;3.03;1.90;;;;;;;18.97;56.33;94687.81;10293535;28;20049;-72
2021/08/19 21:38:52;;;;;;;3.60;1.87;;;;;;;19.05;54.93;94680.72;10295583;28;20385;-72
2021/08/19 21:43:52;;;;;;;4.70;2.40;;;;;;;18.92;56.23;94694.25;10296786;28;20031;-71
2021/08/19 21:48:53;;;;;;;3.93;2.50;;;;;;;18.83;57.02;94688.00;10296516;28;20278;-72
2021/08/19 21:53:54;;;;;;;4.60;2.17;;;;;;;18.66;59.19;94685.34;10296193;28;20069;-72
2021/08/19 21:58:55;;;;;;;5.32;2.58;;;;;;;18.54;59.82;94697.69;10296362;28;20042;-71
2021/08/19 22:03:55;;;;;;;4.77;2.10;;;;;;;18.45;59.89;94695.00;10295563;28;20038;-71
2021/08/19 22:08:56;;;;;;;6.07;2.58;;;;;;;18.31;59.69;94702.56;10295584;28;20051;-71
2021/08/19 22:13:56;;;;;;;4.63;2.60;;;;;;;18.21;60.39;94708.31;10294993;28;20478;-72
2021/08/19 22:18:58;;;;;;;4.45;2.95;;;;;;;18.09;61.40;94709.78;10295476;28;20023;-72
2021/08/19 22:24:00;;;;;;;5.32;2.33;;;;;;;18.16;61.63;94716.69;10293843;28;20030;-72
2021/08/19 22:29:00;;;;;;;10.27;2.58;;;;;;;18.14;63.81;94719.72;10296160;28;20474;-72
2021/08/19 22:34:01;;;;;;;7.80;2.27;;;;;;;18.03;65.94;94718.44;10294669;28;20027;-72
2021/08/19 22:39:02;;;;;;;6.38;2.38;;;;;;;17.90;68.09;94718.25;10290946;28;20290;-73
2021/08/19 22:44:02;;;;;;;8.30;2.38;;;;;;;17.74;70.64;94722.56;10292212;28;20035;-73
2021/08/19 22:49:03;;;;;;;5.72;2.65;;;;;;;17.77;73.03;94722.72;10291027;28;20038;-73
2021/08/19 22:54:04;;;;;;;4.93;2.37;;;;;;;17.73;75.31;94729.13;10290621;28;20029;-73
2021/08/19 22:59:04;;;;;;;4.70;2.35;;;;;;;17.59;76.40;94726.53;10291288;28;20031;-73
2021/08/19 23:04:05;;;;;;;5.00;2.60;;;;;;;17.62;78.39;94722.41;10291710;28;20027;-73
2021/08/19 23:09:05;;;;;;;4.10;2.90;;;;;;;17.60;81.80;94718.06;10290566;28;20057;-73
2021/08/19 23:14:05;;;;;;;9.23;4.20;;;;;;;17.63;90.11;94721.28;10290991;28;20022;-73
2021/08/19 23:19:07;;;;;;;6.60;3.57;;;;;;;17.60;91.34;94723.50;10289562;28;20302;-73